Altoona Blair County Airport
KAOO : now visible

Airfield :











YOU CAN JOIN US ON...

 
LOGIN :

Register | Disclaimer

   EN    FR    IT 

 









Legend :    VFR   Marginal VFR   IFR   Intensive IFR   Very Intensive IFR
Visi :
Ceiling :
>= 8 km
>= 3000ft
5 to 8 km
1000 to 3000 ft
1500m to 5 km
500 to 1000 ft
800 to 1500m
200 to 500 ft
< 800m
< 200 ft
Symbols :   Thunderstorms  Fog  Heavy snow  Heavy precipitations  Wind > 20 kt






- Airport Elevation : 1503 ft
- IATA code : AOO


KAOO - Altoona Blair County

CURRENT METAR :
  • 271808Z AUTO 00000KT 10SM BKN014 BKN034 OVC055 08/07 A2951 RMK AO2 RAE04 P0000 T00830067

EXPIRED METARs :
  • 271753Z AUTO 19004KT 10SM -RA SCT014 BKN050 OVC090 08/07 A2952 RMK AO2 RAE32B51 SLP002 P0000 60012 T00830067 10089 20044 55045
  • 271736Z AUTO 00000KT 10SM BKN014 OVC090 08/07 A2952 RMK AO2 RAE32 PRESFR P0000 T00830067
  • 271726Z AUTO 18004KT 9SM -RA BKN015 OVC100 08/06 A2954 RMK AO2 P0000 T00780061
  • 271711Z AUTO 00000KT 10SM -RA BKN013 BKN022 OVC044 07/06 A2956 RMK AO2 P0000 T00720056
  • 271653Z AUTO 00000KT 1 1/2SM -RA BR SCT022 BKN036 OVC055 07/04 A2959 RMK AO2 RAE07B25 PRESFR SLP026 P0005 T00670044
  • 271700Z AUTO 00000KT 9SM -RA SCT015 BKN022 OVC055 07/05 A2958 RMK AO2 P0000 T00670050
  • 271647Z AUTO 00000KT 1 3/4SM -RA BR SCT024 BKN036 OVC055 06/04 A2960 RMK AO2 RAE07B25 P0004
  • 271553Z AUTO 00000KT 9SM -RA BKN015 OVC022 06/03 A2966 RMK AO2 RAE09B32 SLP052 P0001 T00610033
  • 271517Z AUTO 20003KT 10SM BKN028 OVC034 06/03 A2968 RMK AO2 RAE09 P0000 T00610028

TAF KAOO
Valid from the 27 at 18:00 until the 28 at 18:00 UTC


271727Z 2718/2818 00000KT P6SM -RA BKN013 BKN022 WS020/22050KT
FM272300 23012G21KT 6SM -SHRA BR OVC015
FM280200 27012G24KT P6SM VCSH OVC025
FM281200 30011KT P6SM OVC015
KZOB FIR / North America



MET'MAP, your aeronautical weather chart ! - Copyright ORBIFLY December 2007 - Disclaimer

ORBIFLY MET'MAP TEAM :

Programming & Development : Alexandra Zaïnal
Original concept : Baudouin d'Aumeries
Technical & hardware support : Manuel Goepfert
Assistance : Marc-Olivier Méhu




SOURCES & CREDITS :

   NOAA       Earth
Advisory